sensor_id;sensor_type;location;lat;lon;timestamp;temperature;humidity
42743;DHT22;28397;44.552;-0.848;2022-12-16T00:01:15;6.60;99.90
42743;DHT22;28397;44.552;-0.848;2022-12-16T00:03:41;6.60;99.90
42743;DHT22;28397;44.552;-0.848;2022-12-16T00:06:11;6.60;99.90
42743;DHT22;28397;44.552;-0.848;2022-12-16T00:08:37;6.60;99.90
42743;DHT22;28397;44.552;-0.848;2022-12-16T00:11:04;6.60;99.90
42743;DHT22;28397;44.552;-0.848;2022-12-16T00:13:31;6.60;99.90
42743;DHT22;28397;44.552;-0.848;2022-12-16T00:15:57;6.60;99.90
42743;DHT22;28397;44.552;-0.848;2022-12-16T00:18:24;6.60;99.90
42743;DHT22;28397;44.552;-0.848;2022-12-16T00:20:54;6.70;99.90
42743;DHT22;28397;44.552;-0.848;2022-12-16T00:23:20;6.70;99.90
42743;DHT22;28397;44.552;-0.848;2022-12-16T00:25:46;6.60;99.90
42743;DHT22;28397;44.552;-0.848;2022-12-16T00:28:13;6.70;99.90
42743;DHT22;28397;44.552;-0.848;2022-12-16T00:30:43;6.60;99.90
42743;DHT22;28397;44.552;-0.848;2022-12-16T00:33:09;6.60;99.90
42743;DHT22;28397;44.552;-0.848;2022-12-16T00:35:34;6.50;99.90
42743;DHT22;28397;44.552;-0.848;2022-12-16T00:38:00;6.50;99.90
42743;DHT22;28397;44.552;-0.848;2022-12-16T00:40:26;6.40;99.90
42743;DHT22;28397;44.552;-0.848;2022-12-16T00:42:51;6.30;99.90
42743;DHT22;28397;44.552;-0.848;2022-12-16T00:45:18;6.30;99.90
42743;DHT22;28397;44.552;-0.848;2022-12-16T00:47:44;6.30;99.90
42743;DHT22;28397;44.552;-0.848;2022-12-16T00:50:10;6.30;99.90
42743;DHT22;28397;44.552;-0.848;2022-12-16T00:52:37;6.30;99.90
42743;DHT22;28397;44.552;-0.848;2022-12-16T00:55:03;6.30;99.90
42743;DHT22;28397;44.552;-0.848;2022-12-16T00:57:28;6.30;99.90
42743;DHT22;28397;44.552;-0.848;2022-12-16T00:59:54;6.40;99.90
42743;DHT22;28397;44.552;-0.848;2022-12-16T01:02:20;6.40;99.90
42743;DHT22;28397;44.552;-0.848;2022-12-16T01:04:46;6.30;99.90
42743;DHT22;28397;44.552;-0.848;2022-12-16T01:07:11;6.40;99.90
42743;DHT22;28397;44.552;-0.848;2022-12-16T01:09:37;6.40;99.90
42743;DHT22;28397;44.552;-0.848;2022-12-16T01:12:03;6.30;99.90
42743;DHT22;28397;44.552;-0.848;2022-12-16T01:14:29;6.30;99.90
42743;DHT22;28397;44.552;-0.848;2022-12-16T01:16:54;6.30;99.90
42743;DHT22;28397;44.552;-0.848;2022-12-16T01:19:20;6.20;99.90
42743;DHT22;28397;44.552;-0.848;2022-12-16T01:21:46;6.30;99.90
42743;DHT22;28397;44.552;-0.848;2022-12-16T01:24:11;6.20;99.90
42743;DHT22;28397;44.552;-0.848;2022-12-16T01:26:37;6.10;99.90
42743;DHT22;28397;44.552;-0.848;2022-12-16T01:29:04;6.00;99.90
42743;DHT22;28397;44.552;-0.848;2022-12-16T01:31:30;6.00;99.90
42743;DHT22;28397;44.552;-0.848;2022-12-16T01:33:56;6.00;99.90
42743;DHT22;28397;44.552;-0.848;2022-12-16T01:36:22;6.00;99.90
42743;DHT22;28397;44.552;-0.848;2022-12-16T01:38:48;5.90;99.90
42743;DHT22;28397;44.552;-0.848;2022-12-16T01:41:14;6.00;99.90
42743;DHT22;28397;44.552;-0.848;2022-12-16T01:43:42;5.90;99.90
42743;DHT22;28397;44.552;-0.848;2022-12-16T01:51:36;5.90;99.90
42743;DHT22;28397;44.552;-0.848;2022-12-16T01:54:14;5.90;99.90
42743;DHT22;28397;44.552;-0.848;2022-12-16T01:56:45;5.90;99.90
42743;DHT22;28397;44.552;-0.848;2022-12-16T01:59:13;5.90;99.90
42743;DHT22;28397;44.552;-0.848;2022-12-16T02:01:41;5.90;99.90
42743;DHT22;28397;44.552;-0.848;2022-12-16T02:04:07;5.90;99.90
42743;DHT22;28397;44.552;-0.848;2022-12-16T02:06:32;5.90;99.90
42743;DHT22;28397;44.552;-0.848;2022-12-16T02:09:02;5.90;99.90
42743;DHT22;28397;44.552;-0.848;2022-12-16T02:29:03;5.70;99.90
42743;DHT22;28397;44.552;-0.848;2022-12-16T02:39:54;5.70;99.90
42743;DHT22;28397;44.552;-0.848;2022-12-16T02:42:33;5.70;99.90
42743;DHT22;28397;44.552;-0.848;2022-12-16T02:45:03;5.80;99.90
42743;DHT22;28397;44.552;-0.848;2022-12-16T02:47:31;5.70;99.90
42743;DHT22;28397;44.552;-0.848;2022-12-16T02:49:57;5.60;99.90
42743;DHT22;28397;44.552;-0.848;2022-12-16T02:52:28;5.50;99.90
42743;DHT22;28397;44.552;-0.848;2022-12-16T02:55:01;5.50;99.90
42743;DHT22;28397;44.552;-0.848;2022-12-16T03:00:28;5.50;99.90
42743;DHT22;28397;44.552;-0.848;2022-12-16T03:03:12;5.40;99.90
42743;DHT22;28397;44.552;-0.848;2022-12-16T03:05:45;5.50;99.90
42743;DHT22;28397;44.552;-0.848;2022-12-16T03:08:21;5.50;99.90
42743;DHT22;28397;44.552;-0.848;2022-12-16T03:10:56;5.50;99.90
42743;DHT22;28397;44.552;-0.848;2022-12-16T03:13:25;5.50;99.90
42743;DHT22;28397;44.552;-0.848;2022-12-16T03:15:56;5.40;99.90
42743;DHT22;28397;44.552;-0.848;2022-12-16T03:18:23;5.40;99.90
42743;DHT22;28397;44.552;-0.848;2022-12-16T03:20:56;5.40;99.90
42743;DHT22;28397;44.552;-0.848;2022-12-16T03:23:51;5.40;99.90
42743;DHT22;28397;44.552;-0.848;2022-12-16T03:26:28;5.40;99.90
42743;DHT22;28397;44.552;-0.848;2022-12-16T03:29:09;5.30;99.90
42743;DHT22;28397;44.552;-0.848;2022-12-16T03:31:41;5.40;99.90
42743;DHT22;28397;44.552;-0.848;2022-12-16T03:36:44;5.30;99.90
42743;DHT22;28397;44.552;-0.848;2022-12-16T03:39:13;5.30;99.90
42743;DHT22;28397;44.552;-0.848;2022-12-16T03:41:41;5.30;99.90
42743;DHT22;28397;44.552;-0.848;2022-12-16T03:44:08;5.30;99.90
42743;DHT22;28397;44.552;-0.848;2022-12-16T03:46:35;5.30;99.90
42743;DHT22;28397;44.552;-0.848;2022-12-16T03:49:00;5.30;99.90
42743;DHT22;28397;44.552;-0.848;2022-12-16T03:51:26;5.30;99.90
42743;DHT22;28397;44.552;-0.848;2022-12-16T03:53:52;5.30;99.90
42743;DHT22;28397;44.552;-0.848;2022-12-16T03:56:18;5.30;99.90
42743;DHT22;28397;44.552;-0.848;2022-12-16T03:58:43;5.20;99.90
42743;DHT22;28397;44.552;-0.848;2022-12-16T04:01:12;5.20;99.90
42743;DHT22;28397;44.552;-0.848;2022-12-16T04:03:38;5.20;99.90
42743;DHT22;28397;44.552;-0.848;2022-12-16T04:06:04;5.20;99.90
42743;DHT22;28397;44.552;-0.848;2022-12-16T04:08:30;5.10;99.90
42743;DHT22;28397;44.552;-0.848;2022-12-16T04:10:56;5.10;99.90
42743;DHT22;28397;44.552;-0.848;2022-12-16T04:13:40;5.10;99.90
42743;DHT22;28397;44.552;-0.848;2022-12-16T04:16:26;5.10;99.90
42743;DHT22;28397;44.552;-0.848;2022-12-16T04:19:27;5.10;99.90
42743;DHT22;28397;44.552;-0.848;2022-12-16T04:22:24;5.10;99.90
42743;DHT22;28397;44.552;-0.848;2022-12-16T04:25:16;5.10;99.90
42743;DHT22;28397;44.552;-0.848;2022-12-16T04:27:42;5.10;99.90
42743;DHT22;28397;44.552;-0.848;2022-12-16T04:30:16;5.00;99.90
42743;DHT22;28397;44.552;-0.848;2022-12-16T04:32:50;5.00;99.90
42743;DHT22;28397;44.552;-0.848;2022-12-16T04:35:36;5.00;99.90
42743;DHT22;28397;44.552;-0.848;2022-12-16T04:38:21;5.00;99.90
42743;DHT22;28397;44.552;-0.848;2022-12-16T04:41:05;5.00;99.90
42743;DHT22;28397;44.552;-0.848;2022-12-16T04:43:49;5.00;99.90
42743;DHT22;28397;44.552;-0.848;2022-12-16T04:46:33;4.90;99.90
42743;DHT22;28397;44.552;-0.848;2022-12-16T04:49:17;4.90;99.90
42743;DHT22;28397;44.552;-0.848;2022-12-16T04:52:01;4.90;99.90
42743;DHT22;28397;44.552;-0.848;2022-12-16T04:54:46;4.90;99.90
42743;DHT22;28397;44.552;-0.848;2022-12-16T04:57:30;4.80;99.90
42743;DHT22;28397;44.552;-0.848;2022-12-16T05:00:14;4.80;99.90
42743;DHT22;28397;44.552;-0.848;2022-12-16T05:02:59;4.60;99.90
42743;DHT22;28397;44.552;-0.848;2022-12-16T05:05:43;4.70;99.90
42743;DHT22;28397;44.552;-0.848;2022-12-16T05:08:27;4.60;99.90
42743;DHT22;28397;44.552;-0.848;2022-12-16T05:11:11;4.60;99.90
42743;DHT22;28397;44.552;-0.848;2022-12-16T05:13:55;4.50;99.90
42743;DHT22;28397;44.552;-0.848;2022-12-16T05:16:40;4.50;99.90
42743;DHT22;28397;44.552;-0.848;2022-12-16T05:19:24;4.50;99.90
42743;DHT22;28397;44.552;-0.848;2022-12-16T05:22:08;4.50;99.90
42743;DHT22;28397;44.552;-0.848;2022-12-16T05:24:52;4.50;99.90
42743;DHT22;28397;44.552;-0.848;2022-12-16T05:27:36;4.40;99.90
42743;DHT22;28397;44.552;-0.848;2022-12-16T05:30:20;4.40;99.90
42743;DHT22;28397;44.552;-0.848;2022-12-16T05:33:05;4.50;99.90
42743;DHT22;28397;44.552;-0.848;2022-12-16T05:35:48;4.40;99.90
42743;DHT22;28397;44.552;-0.848;2022-12-16T05:38:34;4.40;99.90
42743;DHT22;28397;44.552;-0.848;2022-12-16T05:41:18;4.40;99.90
42743;DHT22;28397;44.552;-0.848;2022-12-16T05:46:48;4.50;99.90
42743;DHT22;28397;44.552;-0.848;2022-12-16T05:49:32;4.50;99.90
42743;DHT22;28397;44.552;-0.848;2022-12-16T05:52:16;4.50;99.90
42743;DHT22;28397;44.552;-0.848;2022-12-16T05:55:00;4.50;99.90
42743;DHT22;28397;44.552;-0.848;2022-12-16T05:57:48;4.50;99.90
42743;DHT22;28397;44.552;-0.848;2022-12-16T06:00:32;4.50;99.90
42743;DHT22;28397;44.552;-0.848;2022-12-16T06:03:16;4.50;99.90
42743;DHT22;28397;44.552;-0.848;2022-12-16T06:06:01;4.50;99.90
42743;DHT22;28397;44.552;-0.848;2022-12-16T06:08:45;4.50;99.90
42743;DHT22;28397;44.552;-0.848;2022-12-16T06:11:29;4.40;99.90
42743;DHT22;28397;44.552;-0.848;2022-12-16T06:14:18;4.40;99.90
42743;DHT22;28397;44.552;-0.848;2022-12-16T06:17:02;4.30;99.90
42743;DHT22;28397;44.552;-0.848;2022-12-16T06:19:46;4.40;99.90
42743;DHT22;28397;44.552;-0.848;2022-12-16T06:22:30;4.30;99.90
42743;DHT22;28397;44.552;-0.848;2022-12-16T06:25:31;4.30;99.90
42743;DHT22;28397;44.552;-0.848;2022-12-16T06:28:15;4.30;99.90
42743;DHT22;28397;44.552;-0.848;2022-12-16T06:31:00;4.20;99.90
42743;DHT22;28397;44.552;-0.848;2022-12-16T06:33:44;4.20;99.90
42743;DHT22;28397;44.552;-0.848;2022-12-16T06:36:28;4.10;99.90
42743;DHT22;28397;44.552;-0.848;2022-12-16T06:39:12;4.10;99.90
42743;DHT22;28397;44.552;-0.848;2022-12-16T06:42:12;4.10;99.90
42743;DHT22;28397;44.552;-0.848;2022-12-16T06:44:57;4.10;99.90
42743;DHT22;28397;44.552;-0.848;2022-12-16T06:47:42;4.10;99.90
42743;DHT22;28397;44.552;-0.848;2022-12-16T06:50:27;4.10;99.90
42743;DHT22;28397;44.552;-0.848;2022-12-16T06:53:12;4.10;99.90
42743;DHT22;28397;44.552;-0.848;2022-12-16T06:55:56;4.10;99.90
42743;DHT22;28397;44.552;-0.848;2022-12-16T06:58:41;4.10;99.90
42743;DHT22;28397;44.552;-0.848;2022-12-16T07:01:25;4.10;99.90
42743;DHT22;28397;44.552;-0.848;2022-12-16T07:04:09;4.10;99.90
42743;DHT22;28397;44.552;-0.848;2022-12-16T07:06:53;4.00;99.90
42743;DHT22;28397;44.552;-0.848;2022-12-16T07:09:38;4.00;99.90
42743;DHT22;28397;44.552;-0.848;2022-12-16T07:12:22;4.10;99.90
42743;DHT22;28397;44.552;-0.848;2022-12-16T07:15:06;4.10;99.90
42743;DHT22;28397;44.552;-0.848;2022-12-16T07:17:51;4.10;99.90
42743;DHT22;28397;44.552;-0.848;2022-12-16T07:20:35;4.10;99.90
42743;DHT22;28397;44.552;-0.848;2022-12-16T07:23:19;4.10;99.90
42743;DHT22;28397;44.552;-0.848;2022-12-16T07:26:03;4.10;99.90
42743;DHT22;28397;44.552;-0.848;2022-12-16T07:28:48;4.20;99.90
42743;DHT22;28397;44.552;-0.848;2022-12-16T07:31:32;4.20;99.90
42743;DHT22;28397;44.552;-0.848;2022-12-16T07:34:16;4.20;99.90
42743;DHT22;28397;44.552;-0.848;2022-12-16T07:37:00;4.20;99.90
42743;DHT22;28397;44.552;-0.848;2022-12-16T07:39:44;4.20;99.90
42743;DHT22;28397;44.552;-0.848;2022-12-16T07:42:28;4.20;99.90
42743;DHT22;28397;44.552;-0.848;2022-12-16T07:45:12;4.10;99.90
42743;DHT22;28397;44.552;-0.848;2022-12-16T07:47:56;4.20;99.90
42743;DHT22;28397;44.552;-0.848;2022-12-16T07:50:40;4.10;99.90
42743;DHT22;28397;44.552;-0.848;2022-12-16T07:53:25;4.00;99.90
42743;DHT22;28397;44.552;-0.848;2022-12-16T07:56:09;4.10;99.90
42743;DHT22;28397;44.552;-0.848;2022-12-16T07:58:54;4.10;99.90
42743;DHT22;28397;44.552;-0.848;2022-12-16T08:01:38;4.10;99.90
42743;DHT22;28397;44.552;-0.848;2022-12-16T08:04:22;4.00;99.90
42743;DHT22;28397;44.552;-0.848;2022-12-16T08:07:07;4.00;99.90
42743;DHT22;28397;44.552;-0.848;2022-12-16T08:09:51;4.00;99.90
42743;DHT22;28397;44.552;-0.848;2022-12-16T08:12:35;3.90;99.90
42743;DHT22;28397;44.552;-0.848;2022-12-16T08:15:19;3.80;99.90
42743;DHT22;28397;44.552;-0.848;2022-12-16T08:18:03;3.70;99.90
42743;DHT22;28397;44.552;-0.848;2022-12-16T08:20:47;3.70;99.90
42743;DHT22;28397;44.552;-0.848;2022-12-16T08:23:31;3.70;99.90
42743;DHT22;28397;44.552;-0.848;2022-12-16T08:26:16;3.90;99.90
42743;DHT22;28397;44.552;-0.848;2022-12-16T08:29:00;4.00;99.90
42743;DHT22;28397;44.552;-0.848;2022-12-16T08:31:44;3.80;99.90
42743;DHT22;28397;44.552;-0.848;2022-12-16T08:34:28;3.60;99.90
42743;DHT22;28397;44.552;-0.848;2022-12-16T08:37:12;3.50;99.90
42743;DHT22;28397;44.552;-0.848;2022-12-16T08:39:56;3.60;99.90
42743;DHT22;28397;44.552;-0.848;2022-12-16T08:42:40;3.50;99.90
42743;DHT22;28397;44.552;-0.848;2022-12-16T08:45:24;3.50;99.90
42743;DHT22;28397;44.552;-0.848;2022-12-16T08:48:09;3.80;99.90
42743;DHT22;28397;44.552;-0.848;2022-12-16T08:50:53;3.90;99.90
42743;DHT22;28397;44.552;-0.848;2022-12-16T08:53:38;3.60;99.90
42743;DHT22;28397;44.552;-0.848;2022-12-16T08:56:22;3.80;99.90
42743;DHT22;28397;44.552;-0.848;2022-12-16T08:59:06;5.30;99.90
42743;DHT22;28397;44.552;-0.848;2022-12-16T09:01:50;6.80;99.90
42743;DHT22;28397;44.552;-0.848;2022-12-16T09:04:34;7.70;99.90
42743;DHT22;28397;44.552;-0.848;2022-12-16T09:07:18;8.60;99.90
42743;DHT22;28397;44.552;-0.848;2022-12-16T09:10:04;7.70;99.90
42743;DHT22;28397;44.552;-0.848;2022-12-16T09:12:48;7.30;99.90
42743;DHT22;28397;44.552;-0.848;2022-12-16T09:15:32;7.10;99.90
42743;DHT22;28397;44.552;-0.848;2022-12-16T09:18:16;6.20;99.90
42743;DHT22;28397;44.552;-0.848;2022-12-16T09:21:11;6.30;99.90
42743;DHT22;28397;44.552;-0.848;2022-12-16T09:23:55;7.30;99.90
42743;DHT22;28397;44.552;-0.848;2022-12-16T09:26:39;5.90;99.90
42743;DHT22;28397;44.552;-0.848;2022-12-16T09:29:23;6.10;99.90
42743;DHT22;28397;44.552;-0.848;2022-12-16T09:32:07;8.50;99.90
42743;DHT22;28397;44.552;-0.848;2022-12-16T09:34:52;9.50;99.90
42743;DHT22;28397;44.552;-0.848;2022-12-16T09:37:36;11.10;99.90
42743;DHT22;28397;44.552;-0.848;2022-12-16T09:40:20;10.30;99.90
42743;DHT22;28397;44.552;-0.848;2022-12-16T09:49:16;10.50;99.90
42743;DHT22;28397;44.552;-0.848;2022-12-16T09:52:13;10.80;99.90
42743;DHT22;28397;44.552;-0.848;2022-12-16T09:54:59;11.40;99.90
42743;DHT22;28397;44.552;-0.848;2022-12-16T09:57:44;11.60;99.90
42743;DHT22;28397;44.552;-0.848;2022-12-16T10:00:29;11.90;99.90
42743;DHT22;28397;44.552;-0.848;2022-12-16T10:03:34;13.00;99.90
42743;DHT22;28397;44.552;-0.848;2022-12-16T10:09:27;10.80;99.90
42743;DHT22;28397;44.552;-0.848;2022-12-16T10:12:29;9.60;99.90
42743;DHT22;28397;44.552;-0.848;2022-12-16T10:18:28;12.20;99.90
42743;DHT22;28397;44.552;-0.848;2022-12-16T10:21:21;12.40;99.90
42743;DHT22;28397;44.552;-0.848;2022-12-16T10:27:12;10.50;99.90
42743;DHT22;28397;44.552;-0.848;2022-12-16T10:29:56;12.60;99.90
42743;DHT22;28397;44.552;-0.848;2022-12-16T10:32:46;12.20;99.90
42743;DHT22;28397;44.552;-0.848;2022-12-16T10:35:45;13.00;99.90
42743;DHT22;28397;44.552;-0.848;2022-12-16T10:41:40;11.10;99.90
42743;DHT22;28397;44.552;-0.848;2022-12-16T10:47:32;13.90;99.90
42743;DHT22;28397;44.552;-0.848;2022-12-16T10:50:17;12.70;99.90
42743;DHT22;28397;44.552;-0.848;2022-12-16T10:53:03;14.10;99.90
42743;DHT22;28397;44.552;-0.848;2022-12-16T10:55:58;12.10;99.90
42743;DHT22;28397;44.552;-0.848;2022-12-16T10:58:56;13.10;99.90
42743;DHT22;28397;44.552;-0.848;2022-12-16T11:01:58;14.10;99.90
42743;DHT22;28397;44.552;-0.848;2022-12-16T11:04:44;14.90;99.90
42743;DHT22;28397;44.552;-0.848;2022-12-16T11:07:51;14.20;99.90
42743;DHT22;28397;44.552;-0.848;2022-12-16T11:10:39;14.40;99.90
42743;DHT22;28397;44.552;-0.848;2022-12-16T11:13:36;13.20;99.90
42743;DHT22;28397;44.552;-0.848;2022-12-16T11:16:24;15.40;99.90
42743;DHT22;28397;44.552;-0.848;2022-12-16T11:19:26;14.80;99.90
42743;DHT22;28397;44.552;-0.848;2022-12-16T11:22:15;15.40;99.90
42743;DHT22;28397;44.552;-0.848;2022-12-16T11:25:16;14.90;99.90
42743;DHT22;28397;44.552;-0.848;2022-12-16T11:30:51;15.40;99.90
42743;DHT22;28397;44.552;-0.848;2022-12-16T11:33:38;16.20;99.90
42743;DHT22;28397;44.552;-0.848;2022-12-16T11:36:23;17.50;99.90
42743;DHT22;28397;44.552;-0.848;2022-12-16T11:39:18;15.40;99.90
42743;DHT22;28397;44.552;-0.848;2022-12-16T11:42:04;14.60;99.90
42743;DHT22;28397;44.552;-0.848;2022-12-16T11:44:52;14.10;99.90
42743;DHT22;28397;44.552;-0.848;2022-12-16T11:47:52;13.30;99.90
42743;DHT22;28397;44.552;-0.848;2022-12-16T11:50:41;13.20;99.90
42743;DHT22;28397;44.552;-0.848;2022-12-16T11:53:38;15.90;99.90
42743;DHT22;28397;44.552;-0.848;2022-12-16T11:56:26;14.60;99.90
42743;DHT22;28397;44.552;-0.848;2022-12-16T12:02:38;15.20;99.90
42743;DHT22;28397;44.552;-0.848;2022-12-16T12:14:58;15.00;99.90
42743;DHT22;28397;44.552;-0.848;2022-12-16T12:18:34;16.70;99.90
42743;DHT22;28397;44.552;-0.848;2022-12-16T12:23:47;14.80;99.90
42743;DHT22;28397;44.552;-0.848;2022-12-16T12:26:36;15.10;99.90
42743;DHT22;28397;44.552;-0.848;2022-12-16T12:32:33;10.20;99.90
42743;DHT22;28397;44.552;-0.848;2022-12-16T12:47:38;8.50;99.90
42743;DHT22;28397;44.552;-0.848;2022-12-16T12:50:32;8.20;99.90
42743;DHT22;28397;44.552;-0.848;2022-12-16T12:59:15;8.50;99.90
42743;DHT22;28397;44.552;-0.848;2022-12-16T13:02:02;8.40;99.90
42743;DHT22;28397;44.552;-0.848;2022-12-16T13:04:49;7.80;99.90
42743;DHT22;28397;44.552;-0.848;2022-12-16T13:07:34;8.10;99.90
42743;DHT22;28397;44.552;-0.848;2022-12-16T13:16:03;7.90;99.90
42743;DHT22;28397;44.552;-0.848;2022-12-16T13:18:47;7.50;99.90
42743;DHT22;28397;44.552;-0.848;2022-12-16T13:22:04;7.60;99.90
42743;DHT22;28397;44.552;-0.848;2022-12-16T13:25:30;7.40;99.90
42743;DHT22;28397;44.552;-0.848;2022-12-16T13:28:26;7.60;99.90
42743;DHT22;28397;44.552;-0.848;2022-12-16T13:31:12;7.80;99.90
42743;DHT22;28397;44.552;-0.848;2022-12-16T13:34:24;7.80;99.90
42743;DHT22;28397;44.552;-0.848;2022-12-16T13:37:22;7.30;99.90
42743;DHT22;28397;44.552;-0.848;2022-12-16T13:42:55;7.40;99.90
42743;DHT22;28397;44.552;-0.848;2022-12-16T13:48:40;7.50;99.90
42743;DHT22;28397;44.552;-0.848;2022-12-16T13:54:34;7.50;99.90
42743;DHT22;28397;44.552;-0.848;2022-12-16T13:57:21;7.40;99.90
42743;DHT22;28397;44.552;-0.848;2022-12-16T14:00:18;7.30;99.90
42743;DHT22;28397;44.552;-0.848;2022-12-16T14:03:18;7.10;99.90
42743;DHT22;28397;44.552;-0.848;2022-12-16T14:06:14;7.10;99.90
42743;DHT22;28397;44.552;-0.848;2022-12-16T14:09:00;7.10;99.90
42743;DHT22;28397;44.552;-0.848;2022-12-16T14:12:04;7.00;99.90
42743;DHT22;28397;44.552;-0.848;2022-12-16T14:14:58;7.00;99.90
42743;DHT22;28397;44.552;-0.848;2022-12-16T14:17:58;6.90;99.90
42743;DHT22;28397;44.552;-0.848;2022-12-16T14:20:54;7.00;99.90
42743;DHT22;28397;44.552;-0.848;2022-12-16T14:24:06;7.10;99.90
42743;DHT22;28397;44.552;-0.848;2022-12-16T14:26:54;7.00;99.90
42743;DHT22;28397;44.552;-0.848;2022-12-16T14:29:42;6.90;99.90
42743;DHT22;28397;44.552;-0.848;2022-12-16T14:32:29;7.00;99.90
42743;DHT22;28397;44.552;-0.848;2022-12-16T14:35:22;6.90;99.90
42743;DHT22;28397;44.552;-0.848;2022-12-16T14:38:27;6.90;99.90
42743;DHT22;28397;44.552;-0.848;2022-12-16T14:41:22;6.90;99.90
42743;DHT22;28397;44.552;-0.848;2022-12-16T14:44:36;6.80;99.90
42743;DHT22;28397;44.552;-0.848;2022-12-16T14:47:20;6.70;99.90
42743;DHT22;28397;44.552;-0.848;2022-12-16T14:50:25;6.70;99.90
42743;DHT22;28397;44.552;-0.848;2022-12-16T14:53:12;6.60;99.90
42743;DHT22;28397;44.552;-0.848;2022-12-16T14:56:15;6.50;99.90
42743;DHT22;28397;44.552;-0.848;2022-12-16T14:59:26;6.50;99.90
42743;DHT22;28397;44.552;-0.848;2022-12-16T15:02:43;6.50;99.90
42743;DHT22;28397;44.552;-0.848;2022-12-16T15:05:32;6.40;99.90
42743;DHT22;28397;44.552;-0.848;2022-12-16T15:08:17;6.30;99.90
42743;DHT22;28397;44.552;-0.848;2022-12-16T15:11:03;6.30;99.90
42743;DHT22;28397;44.552;-0.848;2022-12-16T15:13:52;6.20;99.90
42743;DHT22;28397;44.552;-0.848;2022-12-16T15:16:38;6.20;99.90
42743;DHT22;28397;44.552;-0.848;2022-12-16T15:19:23;6.20;99.90
42743;DHT22;28397;44.552;-0.848;2022-12-16T15:22:15;6.10;99.90
42743;DHT22;28397;44.552;-0.848;2022-12-16T15:25:00;6.10;99.90
42743;DHT22;28397;44.552;-0.848;2022-12-16T15:27:53;6.00;99.90
42743;DHT22;28397;44.552;-0.848;2022-12-16T15:30:42;6.00;99.90
42743;DHT22;28397;44.552;-0.848;2022-12-16T15:33:32;5.90;99.90
42743;DHT22;28397;44.552;-0.848;2022-12-16T15:36:40;5.90;99.90
42743;DHT22;28397;44.552;-0.848;2022-12-16T15:39:35;5.90;99.90
42743;DHT22;28397;44.552;-0.848;2022-12-16T15:42:28;5.80;99.90
42743;DHT22;28397;44.552;-0.848;2022-12-16T15:45:30;5.70;99.90
42743;DHT22;28397;44.552;-0.848;2022-12-16T15:48:27;5.60;99.90
42743;DHT22;28397;44.552;-0.848;2022-12-16T15:51:42;5.50;99.90
42743;DHT22;28397;44.552;-0.848;2022-12-16T15:54:28;5.40;99.90
42743;DHT22;28397;44.552;-0.848;2022-12-16T16:00:36;5.10;99.90
42743;DHT22;28397;44.552;-0.848;2022-12-16T16:03:26;4.90;99.90
42743;DHT22;28397;44.552;-0.848;2022-12-16T16:06:22;4.70;99.90
42743;DHT22;28397;44.552;-0.848;2022-12-16T16:09:28;4.40;99.90
42743;DHT22;28397;44.552;-0.848;2022-12-16T16:12:18;4.40;99.90
42743;DHT22;28397;44.552;-0.848;2022-12-16T16:15:03;4.20;99.90
42743;DHT22;28397;44.552;-0.848;2022-12-16T16:17:59;4.10;99.90
42743;DHT22;28397;44.552;-0.848;2022-12-16T16:20:43;4.10;99.90
42743;DHT22;28397;44.552;-0.848;2022-12-16T16:23:28;3.90;99.90
42743;DHT22;28397;44.552;-0.848;2022-12-16T16:26:15;3.70;99.90
42743;DHT22;28397;44.552;-0.848;2022-12-16T16:29:00;3.50;99.90
42743;DHT22;28397;44.552;-0.848;2022-12-16T16:31:44;3.30;99.90
42743;DHT22;28397;44.552;-0.848;2022-12-16T16:34:28;3.10;99.90
42743;DHT22;28397;44.552;-0.848;2022-12-16T16:37:17;3.00;99.90
42743;DHT22;28397;44.552;-0.848;2022-12-16T16:40:21;2.90;99.90
42743;DHT22;28397;44.552;-0.848;2022-12-16T16:43:06;2.70;99.90
42743;DHT22;28397;44.552;-0.848;2022-12-16T16:45:54;2.70;99.90
42743;DHT22;28397;44.552;-0.848;2022-12-16T16:48:39;2.70;99.90
42743;DHT22;28397;44.552;-0.848;2022-12-16T16:51:23;2.50;99.90
42743;DHT22;28397;44.552;-0.848;2022-12-16T16:54:07;2.50;99.90
42743;DHT22;28397;44.552;-0.848;2022-12-16T16:56:51;2.40;99.90
42743;DHT22;28397;44.552;-0.848;2022-12-16T16:59:35;2.30;99.90
42743;DHT22;28397;44.552;-0.848;2022-12-16T17:02:22;2.20;99.90
42743;DHT22;28397;44.552;-0.848;2022-12-16T17:05:06;2.20;99.90
42743;DHT22;28397;44.552;-0.848;2022-12-16T17:07:51;2.20;99.90
42743;DHT22;28397;44.552;-0.848;2022-12-16T17:10:35;2.20;99.90
42743;DHT22;28397;44.552;-0.848;2022-12-16T17:13:20;1.80;99.90
42743;DHT22;28397;44.552;-0.848;2022-12-16T17:16:04;1.70;99.90
42743;DHT22;28397;44.552;-0.848;2022-12-16T17:18:48;1.70;99.90
42743;DHT22;28397;44.552;-0.848;2022-12-16T17:21:32;1.70;99.90
42743;DHT22;28397;44.552;-0.848;2022-12-16T17:24:17;1.60;99.90
42743;DHT22;28397;44.552;-0.848;2022-12-16T17:27:15;1.50;99.90
42743;DHT22;28397;44.552;-0.848;2022-12-16T17:30:00;1.50;99.90
42743;DHT22;28397;44.552;-0.848;2022-12-16T17:32:44;1.50;99.90
42743;DHT22;28397;44.552;-0.848;2022-12-16T17:35:29;1.40;99.90
42743;DHT22;28397;44.552;-0.848;2022-12-16T17:38:13;1.40;99.90
42743;DHT22;28397;44.552;-0.848;2022-12-16T17:40:57;1.30;99.90
42743;DHT22;28397;44.552;-0.848;2022-12-16T17:43:41;1.40;99.90
42743;DHT22;28397;44.552;-0.848;2022-12-16T17:46:25;1.30;99.90
42743;DHT22;28397;44.552;-0.848;2022-12-16T17:49:09;0.90;99.90
42743;DHT22;28397;44.552;-0.848;2022-12-16T17:51:53;0.80;99.90
42743;DHT22;28397;44.552;-0.848;2022-12-16T17:54:37;0.70;99.90
42743;DHT22;28397;44.552;-0.848;2022-12-16T17:57:22;0.50;99.90
42743;DHT22;28397;44.552;-0.848;2022-12-16T18:00:06;0.50;99.90
42743;DHT22;28397;44.552;-0.848;2022-12-16T18:02:50;0.30;99.90
42743;DHT22;28397;44.552;-0.848;2022-12-16T18:05:34;0.60;99.90
42743;DHT22;28397;44.552;-0.848;2022-12-16T18:08:19;0.70;99.90
42743;DHT22;28397;44.552;-0.848;2022-12-16T18:11:03;0.40;99.90
42743;DHT22;28397;44.552;-0.848;2022-12-16T18:13:47;0.30;99.90
42743;DHT22;28397;44.552;-0.848;2022-12-16T18:19:16;0.10;99.90
42743;DHT22;28397;44.552;-0.848;2022-12-16T18:22:01;0.20;99.90
42743;DHT22;28397;44.552;-0.848;2022-12-16T18:24:45;0.10;99.90
42743;DHT22;28397;44.552;-0.848;2022-12-16T18:27:29;0.10;99.90
42743;DHT22;28397;44.552;-0.848;2022-12-16T18:30:14;0.20;99.90
42743;DHT22;28397;44.552;-0.848;2022-12-16T18:32:58;0.20;99.90
42743;DHT22;28397;44.552;-0.848;2022-12-16T18:35:43;0.30;99.90
42743;DHT22;28397;44.552;-0.848;2022-12-16T18:38:27;0.10;99.90
42743;DHT22;28397;44.552;-0.848;2022-12-16T18:41:17;-0.20;99.90
42743;DHT22;28397;44.552;-0.848;2022-12-16T18:44:03;0.10;99.90
42743;DHT22;28397;44.552;-0.848;2022-12-16T18:46:48;0.00;99.90
42743;DHT22;28397;44.552;-0.848;2022-12-16T18:49:32;-0.20;99.90
42743;DHT22;28397;44.552;-0.848;2022-12-16T18:52:17;-0.30;99.90
42743;DHT22;28397;44.552;-0.848;2022-12-16T18:55:02;-0.60;99.90
42743;DHT22;28397;44.552;-0.848;2022-12-16T18:57:49;-0.50;99.90
42743;DHT22;28397;44.552;-0.848;2022-12-16T19:00:33;-0.60;99.90
42743;DHT22;28397;44.552;-0.848;2022-12-16T19:03:17;-0.60;99.90
42743;DHT22;28397;44.552;-0.848;2022-12-16T19:06:01;-0.50;99.90
42743;DHT22;28397;44.552;-0.848;2022-12-16T19:08:45;-0.60;99.90
42743;DHT22;28397;44.552;-0.848;2022-12-16T19:11:29;-0.90;99.90